Avon, Illinois
Current Conditions -  °F | °C
As of 2:55 AM on Saturday 01 Nov 2014 (Local Time) from KMQB Reporting Station
Clear Clear  
Wind Chill: 15°   Ceiling: Unl
Heat Index: 24°   Visibility: 10mi
Dew Point: 20°   Wind: 7mph
Humidity: 85%   Direction: 340°NNW
Pressure: 30.47"   Gusts: NA
Location:  40.66°N, 90.43°W
Report Text: KMQB 010755Z AUTO 34006KT 10SM CLR M05/M07 A3047 RMK AO2 T10471069
Loading
Personal Weather Stations






























Interactive Weather Map
Tropical Storm Tracking
New forecast layout! Learn more

10-Day Weather Forecast

Advertisements
Track Severe Weather on mobile